Time;durP1;ratioP1;P1;durP2;ratioP2;P2;SDS_P1;SDS_P2;PMS_P1;PMS_P2;Temp;Humidity;BMP_temperature;BMP_pressure;BME280_temperature;BME280_humidity;BME280_pressure;Samples;Min_cycle;Max_cycle;Signal;HPM_P1;HPM_P2
2021/11/02 00:00:33;;;;;;;12.02;7.13;;;;;;;6.07;100.00;99851.75;2630748;36;20153;-70
2021/11/02 00:03:02;;;;;;;11.52;8.07;;;;;;;6.06;100.00;99850.06;2610973;36;20037;-70
2021/11/02 00:05:31;;;;;;;12.93;8.60;;;;;;;5.98;100.00;99845.38;2612454;36;20149;-70
2021/11/02 00:08:01;;;;;;;13.25;8.75;;;;;;;5.97;100.00;99849.84;2611954;36;20162;-70
2021/11/02 00:10:30;;;;;;;14.27;8.95;;;;;;;5.94;100.00;99851.94;2611944;36;20096;-70
2021/11/02 00:12:59;;;;;;;13.13;9.05;;;;;;;5.91;100.00;99853.03;2611821;36;20034;-70
2021/11/02 00:15:36;;;;;;;12.38;9.25;;;;;;;5.87;100.00;99846.25;2612074;36;20069;-70
2021/11/02 00:18:06;;;;;;;13.82;8.52;;;;;;;5.84;100.00;99849.19;2610659;36;20038;-70
2021/11/02 00:20:34;;;;;;;14.07;8.93;;;;;;;5.78;100.00;99847.03;2611951;36;20037;-70
2021/11/02 00:23:05;;;;;;;13.73;9.45;;;;;;;5.71;100.00;99844.06;2611295;36;20034;-70
2021/11/02 00:25:34;;;;;;;13.05;9.75;;;;;;;5.69;100.00;99846.00;2611429;36;20061;-70
2021/11/02 00:28:04;;;;;;;14.68;10.75;;;;;;;5.75;100.00;99839.28;2611748;36;20161;-69
2021/11/02 00:30:35;;;;;;;15.75;11.52;;;;;;;5.76;100.00;99843.66;2611691;36;20038;-70
2021/11/02 00:33:03;;;;;;;16.75;10.80;;;;;;;5.80;100.00;99839.75;2611522;36;20034;-70
2021/11/02 00:35:31;;;;;;;16.95;10.73;;;;;;;5.86;100.00;99836.56;2607097;36;21287;-70
2021/11/02 00:38:00;;;;;;;15.45;9.88;;;;;;;5.76;100.00;99827.66;2604994;36;20039;-70
2021/11/02 00:40:28;;;;;;;18.05;11.63;;;;;;;5.83;100.00;99836.84;2604823;36;20035;-70
2021/11/02 00:42:59;;;;;;;17.25;11.25;;;;;;;5.79;100.00;99832.72;2603169;36;20034;-70
2021/11/02 00:45:31;;;;;;;13.85;10.50;;;;;;;5.73;100.00;99831.41;2602449;31;20126;-70
2021/11/02 00:48:04;;;;;;;18.65;12.52;;;;;;;5.74;100.00;99837.59;2601426;36;20408;-70
2021/11/02 00:50:34;;;;;;;18.05;11.77;;;;;;;5.74;100.00;99840.25;2601704;31;20593;-70
2021/11/02 00:53:03;;;;;;;19.77;11.88;;;;;;;5.70;100.00;99838.84;2601250;31;20061;-71
2021/11/02 00:55:32;;;;;;;21.25;13.52;;;;;;;5.72;100.00;99839.56;2602453;36;20519;-70
2021/11/02 00:58:02;;;;;;;16.02;12.57;;;;;;;5.71;100.00;99836.06;2609256;31;20037;-70
2021/11/02 01:00:31;;;;;;;17.88;12.52;;;;;;;5.71;100.00;99840.53;2612036;36;20612;-70
2021/11/02 01:03:02;;;;;;;20.10;13.88;;;;;;;5.65;100.00;99841.88;2611150;36;20034;-70
2021/11/02 01:05:30;;;;;;;20.70;14.75;;;;;;;5.67;100.00;99836.41;2611756;36;20034;-71
2021/11/02 01:07:59;;;;;;;21.65;14.10;;;;;;;5.66;100.00;99835.59;2611360;36;20073;-70
2021/11/02 01:10:30;;;;;;;22.83;15.90;;;;;;;5.73;100.00;99833.25;2608424;36;20800;-71
2021/11/02 01:12:59;;;;;;;22.42;15.82;;;;;;;5.71;100.00;99825.38;2604533;36;20034;-70
2021/11/02 01:15:30;;;;;;;18.70;13.77;;;;;;;5.70;100.00;99829.00;2602796;36;20121;-70
2021/11/02 01:17:59;;;;;;;19.98;13.38;;;;;;;5.68;100.00;99827.44;2604102;36;20081;-70
2021/11/02 01:20:30;;;;;;;21.88;13.82;;;;;;;5.68;100.00;99825.59;2603611;36;20052;-70
2021/11/02 01:22:58;;;;;;;20.13;12.73;;;;;;;5.65;100.00;99825.03;2602187;36;20042;-70
2021/11/02 01:25:27;;;;;;;22.00;14.05;;;;;;;5.69;100.00;99821.97;2602785;36;20126;-70
2021/11/02 01:27:55;;;;;;;21.65;15.15;;;;;;;5.71;100.00;99825.38;2602648;36;20050;-70
2021/11/02 01:30:26;;;;;;;18.60;13.95;;;;;;;5.73;100.00;99814.56;2602749;36;20471;-70
2021/11/02 01:32:55;;;;;;;18.77;13.40;;;;;;;5.78;100.00;99815.00;2603127;31;20630;-70
2021/11/02 01:35:23;;;;;;;21.58;12.88;;;;;;;5.71;100.00;99819.16;2602881;36;20065;-70
2021/11/02 01:37:54;;;;;;;20.60;13.20;;;;;;;5.69;100.00;99819.28;2604433;36;20039;-70
2021/11/02 01:40:23;;;;;;;19.75;14.10;;;;;;;5.67;100.00;99817.72;2605356;36;20608;-70
2021/11/02 01:42:51;;;;;;;19.25;12.52;;;;;;;5.66;100.00;99813.38;2601621;36;20542;-70
2021/11/02 01:45:26;;;;;;;20.15;13.55;;;;;;;5.72;100.00;99812.84;2601765;36;20054;-70
2021/11/02 01:47:56;;;;;;;20.80;13.93;;;;;;;5.67;100.00;99809.72;2603200;36;20039;-70
2021/11/02 01:50:24;;;;;;;;;;;;;;;5.66;100.00;99805.38;2602816;31;20573;-70
2021/11/02 01:52:55;;;;;;;21.20;13.23;;;;;;;5.66;100.00;99806.22;2601485;36;20065;-71
2021/11/02 01:55:24;;;;;;;23.40;13.52;;;;;;;5.62;100.00;99802.09;2602288;36;20374;-69
2021/11/02 01:57:52;;;;;;;15.98;11.93;;;;;;;5.70;100.00;99801.47;2603543;36;20687;-70
2021/11/02 02:00:22;;;;;;;19.85;14.20;;;;;;;5.64;100.00;99804.63;2600965;36;20439;-70
2021/11/02 02:03:02;;;;;;;19.67;13.07;;;;;;;5.55;100.00;99799.13;2602884;36;20161;-70
2021/11/02 02:05:44;;;;;;;24.65;14.43;;;;;;;5.61;100.00;99801.28;2602941;36;20034;-70
2021/11/02 02:08:22;;;;;;;22.00;12.80;;;;;;;5.57;100.00;99801.66;2602501;36;20069;-70
2021/11/02 02:11:00;;;;;;;24.48;14.32;;;;;;;5.55;100.00;99795.59;2603332;36;20158;-70
2021/11/02 02:13:38;;;;;;;22.53;13.40;;;;;;;5.56;100.00;99800.81;2601766;36;20069;-70
2021/11/02 02:16:14;;;;;;;23.52;14.35;;;;;;;5.51;100.00;99802.19;2606177;36;20035;-69
2021/11/02 02:18:48;;;;;;;23.10;14.13;;;;;;;5.49;100.00;99805.00;2601582;36;20043;-70
2021/11/02 02:21:56;;;;;;;27.30;14.27;;;;;;;5.46;100.00;99805.22;2604332;36;20034;-70
2021/11/02 02:24:41;;;;;;;23.25;15.02;;;;;;;5.40;100.00;99801.28;2601304;36;20034;-70
2021/11/02 02:27:24;;;;;;;22.90;13.98;;;;;;;5.43;100.00;99802.81;2602107;36;20034;-70
2021/11/02 02:29:57;;;;;;;22.92;13.43;;;;;;;5.35;100.00;99799.97;2602129;31;20050;-69
2021/11/02 02:32:28;;;;;;;21.70;14.00;;;;;;;5.34;100.00;99800.94;2601316;36;20057;-70
2021/11/02 02:35:06;;;;;;;23.08;14.25;;;;;;;5.38;100.00;99805.03;2603459;36;20149;-70
2021/11/02 02:37:35;;;;;;;24.98;14.93;;;;;;;5.39;100.00;99798.72;2602259;36;20053;-70
2021/11/02 02:40:05;;;;;;;27.90;16.00;;;;;;;5.31;100.00;99811.84;2603218;36;20122;-70
2021/11/02 02:42:35;;;;;;;32.05;15.40;;;;;;;5.37;100.00;99806.00;2603753;36;20038;-70
2021/11/02 02:45:08;;;;;;;22.77;14.40;;;;;;;5.31;100.00;99806.53;2619866;36;20097;-70
2021/11/02 02:47:38;;;;;;;23.92;13.05;;;;;;;5.29;100.00;99808.47;2601194;36;20046;-70
2021/11/02 02:50:09;;;;;;;27.88;15.38;;;;;;;5.30;100.00;99804.81;2601094;36;20035;-70
2021/11/02 02:52:38;;;;;;;29.45;15.88;;;;;;;5.24;100.00;99793.69;2604399;36;20514;-70
2021/11/02 02:55:09;;;;;;;26.77;15.43;;;;;;;5.19;100.00;99803.06;2602492;36;20138;-70
2021/11/02 02:57:38;;;;;;;28.63;18.15;;;;;;;5.26;100.00;99799.75;2601199;36;20635;-70
2021/11/02 03:00:13;;;;;;;29.85;17.35;;;;;;;5.25;100.00;99807.88;2601422;36;20647;-69
2021/11/02 03:02:44;;;;;;;29.58;15.98;;;;;;;5.22;100.00;99800.13;2603070;36;20038;-70
2021/11/02 03:05:17;;;;;;;25.08;15.57;;;;;;;5.24;100.00;99800.84;2603633;36;20037;-70
2021/11/02 03:07:45;;;;;;;32.00;16.30;;;;;;;5.21;100.00;99801.97;2601317;36;20057;-70
2021/11/02 03:10:15;;;;;;;29.17;15.40;;;;;;;5.15;100.00;99802.44;2602203;31;20035;-70
2021/11/02 03:12:50;;;;;;;30.38;14.60;;;;;;;5.21;100.00;99801.09;2602536;31;20625;-70
2021/11/02 03:18:26;;;;;;;29.63;15.30;;;;;;;5.17;100.00;99805.00;2600561;36;20934;-70
2021/11/02 03:48:35;;;;;;;37.50;15.05;;;;;;;4.97;100.00;99814.66;2603668;36;20593;-70
2021/11/02 03:51:19;;;;;;;33.35;15.35;;;;;;;4.97;100.00;99812.81;2603107;36;20038;-70
2021/11/02 03:56:54;;;;;;;34.95;16.25;;;;;;;4.97;100.00;99809.31;2601175;36;20035;-69
2021/11/02 04:24:52;;;;;;;46.17;18.45;;;;;;;4.97;100.00;99830.66;2601995;36;20034;-69
2021/11/02 04:27:35;;;;;;;48.72;18.70;;;;;;;5.01;100.00;99837.44;2602116;36;20042;-69
2021/11/02 04:36:12;;;;;;;49.30;20.13;;;;;;;4.97;100.00;99836.81;2606830;36;20408;-69
2021/11/02 04:47:21;;;;;;;41.10;16.52;;;;;;;5.05;100.00;99841.53;2602103;36;20031;-70
2021/11/02 04:58:22;;;;;;;50.88;19.45;;;;;;;5.01;100.00;99840.09;2600945;36;20475;-69
2021/11/02 05:47:25;;;;;;;47.50;20.17;;;;;;;4.93;100.00;99830.03;2603557;36;20045;-70
2021/11/02 05:50:04;;;;;;;49.78;21.13;;;;;;;4.91;100.00;99832.00;2603632;36;20038;-69
2021/11/02 05:58:27;;;;;;;32.65;17.90;;;;;;;4.84;100.00;99831.63;2602522;36;20623;-69
2021/11/02 06:01:02;;;;;;;44.58;19.60;;;;;;;4.88;100.00;99833.09;2600192;36;20042;-69
2021/11/02 06:03:41;;;;;;;45.22;21.17;;;;;;;4.87;100.00;99835.88;2602543;36;21298;-69
2021/11/02 06:06:20;;;;;;;32.80;18.60;;;;;;;4.84;100.00;99846.78;2601824;36;20053;-69
2021/11/02 06:28:04;;;;;;;46.97;23.27;;;;;;;4.67;100.00;99850.84;2603815;36;20479;-69
2021/11/02 06:30:38;;;;;;;52.50;22.98;;;;;;;4.66;100.00;99846.47;2601172;36;22791;-69
2021/11/02 06:33:16;;;;;;;46.75;23.27;;;;;;;4.59;100.00;99847.91;2601791;36;20061;-69
2021/11/02 06:36:07;;;;;;;49.60;23.38;;;;;;;4.55;100.00;99853.50;2601608;36;20030;-69
2021/11/02 07:16:52;;;;;;;46.25;24.42;;;;;;;5.24;100.00;99876.41;2608000;36;20124;-69
2021/11/02 07:19:37;;;;;;;46.10;22.73;;;;;;;5.30;100.00;99876.84;2607953;36;20130;-69
2021/11/02 07:22:27;;;;;;;45.47;21.60;;;;;;;5.37;100.00;99875.38;2611958;36;20495;-69
2021/11/02 07:25:16;;;;;;;37.92;19.90;;;;;;;5.44;100.00;99876.56;2612548;47;20046;-69
2021/11/02 08:46:36;;;;;;;31.88;17.02;;;;;;;6.46;100.00;99874.19;2609477;36;20081;-69
2021/11/02 08:49:09;;;;;;;27.00;16.58;;;;;;;6.54;100.00;99876.19;2611051;31;20035;-69
2021/11/02 08:51:40;;;;;;;25.23;15.00;;;;;;;6.60;100.00;99880.97;2628224;36;20050;-68
2021/11/02 08:54:15;;;;;;;23.83;15.48;;;;;;;6.69;100.00;99878.50;2629582;36;20035;-69
2021/11/02 08:56:48;;;;;;;24.08;15.35;;;;;;;6.68;100.00;99871.44;2611572;36;20046;-70
2021/11/02 08:59:17;;;;;;;26.98;15.90;;;;;;;6.78;100.00;99885.69;2611952;36;20031;-69
2021/11/02 09:01:47;;;;;;;23.02;13.45;;;;;;;6.74;100.00;99877.09;2611067;31;20525;-71
2021/11/02 09:04:18;;;;;;;21.60;14.93;;;;;;;6.79;100.00;99879.38;2611398;31;20030;-69
2021/11/02 09:06:52;;;;;;;21.05;15.18;;;;;;;6.94;100.00;99883.34;2611134;36;20133;-70
2021/11/02 09:09:21;;;;;;;21.92;16.00;;;;;;;6.92;100.00;99868.41;2610852;36;20054;-71
2021/11/02 09:11:51;;;;;;;22.95;14.45;;;;;;;7.03;100.00;99879.00;2611925;36;20049;-69
2021/11/02 09:14:20;;;;;;;23.42;15.75;;;;;;;7.07;100.00;99882.28;2611017;36;20030;-69
2021/11/02 09:16:50;;;;;;;22.10;14.27;;;;;;;7.35;100.00;99878.78;2612523;36;20041;-70
2021/11/02 09:19:18;;;;;;;24.13;15.10;;;;;;;7.53;100.00;99883.44;2611493;36;20034;-69
2021/11/02 09:21:52;;;;;;;21.58;14.35;;;;;;;7.76;100.00;99877.78;2612241;36;20133;-71
2021/11/02 09:24:28;;;;;;;21.60;13.88;;;;;;;7.83;100.00;99874.41;2612283;36;20121;-71
2021/11/02 09:26:59;;;;;;;21.98;14.73;;;;;;;7.89;100.00;99867.63;2612514;36;20158;-70
2021/11/02 09:29:27;;;;;;;23.20;13.65;;;;;;;8.09;100.00;99868.44;2612252;36;20038;-69
2021/11/02 09:31:59;;;;;;;21.45;14.02;;;;;;;8.18;100.00;99872.09;2612478;36;20082;-69
2021/11/02 09:34:28;;;;;;;19.42;13.25;;;;;;;8.21;100.00;99877.16;2612159;36;20133;-72
2021/11/02 09:37:05;;;;;;;19.17;13.98;;;;;;;8.04;100.00;99871.56;2612380;36;20042;-70
2021/11/02 09:39:40;;;;;;;25.48;13.88;;;;;;;8.20;100.00;99876.31;2628608;36;20041;-69
2021/11/02 09:42:28;;;;;;;22.52;13.82;;;;;;;8.31;100.00;99875.28;2611522;36;20038;-70
2021/11/02 09:45:24;;;;;;;26.90;14.85;;;;;;;8.53;100.00;99881.31;2612441;36;20157;-70
2021/11/02 09:48:22;;;;;;;22.15;14.25;;;;;;;8.41;100.00;99873.44;2612129;36;20125;-70
2021/11/02 09:51:41;;;;;;;23.73;15.47;;;;;;;8.35;100.00;99876.69;2612416;36;20527;-69
2021/11/02 09:54:43;;;;;;;23.15;15.10;;;;;;;8.24;100.00;99879.53;2611396;36;20038;-70
2021/11/02 09:57:31;;;;;;;27.25;15.30;;;;;;;8.31;100.00;99883.34;2611219;36;20031;-70
2021/11/02 10:00:14;;;;;;;26.17;16.30;;;;;;;8.38;100.00;99886.28;2611612;36;20053;-70
2021/11/02 10:03:19;;;;;;;23.48;14.32;;;;;;;8.48;100.00;99888.94;2612624;36;20342;-70
2021/11/02 10:06:27;;;;;;;24.30;15.05;;;;;;;8.51;100.00;99888.66;2610690;36;20411;-70
2021/11/02 10:09:03;;;;;;;26.55;15.50;;;;;;;8.29;100.00;99890.69;2611642;36;20614;-71
2021/11/02 10:14:40;;;;;;;24.05;15.70;;;;;;;8.05;100.00;99883.97;2612611;36;20034;-70
2021/11/02 10:17:54;;;;;;;26.88;15.55;;;;;;;8.14;100.00;99881.41;2612062;36;20030;-70
2021/11/02 10:20:40;;;;;;;28.67;16.55;;;;;;;8.21;100.00;99887.88;2611436;36;20561;-71
2021/11/02 10:23:33;;;;;;;26.15;16.23;;;;;;;8.31;100.00;99888.69;2612220;36;20508;-69
2021/11/02 10:26:24;;;;;;;24.48;16.83;;;;;;;8.25;100.00;99886.59;2613091;31;20597;-72
2021/11/02 10:29:36;;;;;;;29.85;16.88;;;;;;;8.20;100.00;99891.53;2612408;36;20050;-70
2021/11/02 10:32:07;;;;;;;24.63;16.88;;;;;;;8.12;100.00;99888.75;2610918;36;20065;-72
2021/11/02 10:34:58;;;;;;;27.92;16.23;;;;;;;8.20;100.00;99891.53;2610345;36;20038;-71
2021/11/02 10:37:33;;;;;;;26.00;16.35;;;;;;;8.28;100.00;99889.00;2611076;36;20097;-70
2021/11/02 10:40:32;;;;;;;29.00;15.80;;;;;;;8.23;100.00;99885.91;2612565;36;20122;-72
2021/11/02 10:43:32;;;;;;;28.15;17.98;;;;;;;8.24;100.00;99892.94;2612451;36;20459;-70
2021/11/02 10:46:05;;;;;;;28.95;17.63;;;;;;;8.11;100.00;99887.06;2611792;36;20589;-71
2021/11/02 10:48:41;;;;;;;25.27;14.88;;;;;;;8.23;100.00;99888.59;2611693;36;20077;-71
2021/11/02 10:51:26;;;;;;;23.52;15.00;;;;;;;8.16;100.00;99882.13;2611425;36;20558;-72
2021/11/02 10:54:03;;;;;;;22.17;14.98;;;;;;;8.20;100.00;99883.50;2611904;31;20487;-70
2021/11/02 10:56:47;;;;;;;24.63;14.77;;;;;;;8.25;100.00;99883.91;2612510;36;20379;-71
2021/11/02 10:59:17;;;;;;;24.58;15.23;;;;;;;8.20;100.00;99880.81;2611917;36;20133;-71
2021/11/02 11:01:47;;;;;;;21.50;14.05;;;;;;;8.22;100.00;99878.84;2611584;36;20054;-72
2021/11/02 11:04:16;;;;;;;;;;;;;;;8.20;100.00;99879.00;2611436;36;20038;-73
2021/11/02 11:06:47;;;;;;;25.38;15.98;;;;;;;8.22;100.00;99884.22;2612198;36;19950;-71
2021/11/02 11:09:19;;;;;;;22.88;15.10;;;;;;;8.38;100.00;99884.44;2612038;36;21318;-71
2021/11/02 11:11:49;;;;;;;21.67;14.10;;;;;;;8.50;100.00;99887.00;2612034;36;20034;-71
2021/11/02 11:14:42;;;;;;;24.00;15.88;;;;;;;8.50;100.00;99887.00;2611531;36;20165;-71
2021/11/02 11:17:14;;;;;;;24.35;14.73;;;;;;;8.46;100.00;99880.22;2612138;36;20085;-70
2021/11/02 11:19:46;;;;;;;21.90;15.48;;;;;;;8.54;100.00;99883.88;2611451;31;20514;-71
2021/11/02 11:22:29;;;;;;;23.08;16.23;;;;;;;8.67;100.00;99886.22;2612608;36;20072;-72
2021/11/02 11:29:00;;;;;;;;;;;;;;;;;;;;;
2021/11/02 12:30:11;;;;;;;16.58;11.95;;;;;;;9.20;100.00;99843.53;2610471;54;20042;-69
2021/11/02 12:35:57;;;;;;;17.42;13.18;;;;;;;9.14;100.00;99838.78;2608575;54;20049;-69
2021/11/02 12:39:05;;;;;;;20.20;12.25;;;;;;;9.09;100.00;99842.75;2645673;36;20107;-70
2021/11/02 12:42:43;;;;;;;;;;;;;;;;;;;;;
2021/11/02 12:45:53;;;;;;;17.90;13.07;;;;;;;9.11;100.00;99837.22;2627402;36;21135;-70
2021/11/02 12:51:57;;;;;;;17.63;13.27;;;;;;;9.01;100.00;99841.81;2611099;36;20054;-72
2021/11/02 16:48:16;;;;;;;25.92;17.13;;;;;;;8.24;100.00;99847.38;2629591;36;20721;-68
2021/11/02 17:08:25;;;;;;;26.27;17.63;;;;;;;8.15;100.00;99867.03;2613226;36;20578;-68
2021/11/02 17:10:56;;;;;;;27.00;17.95;;;;;;;8.17;100.00;99867.69;2612334;31;20069;-68
2021/11/02 17:13:28;;;;;;;24.75;16.30;;;;;;;8.11;100.00;99876.34;2612479;36;20038;-68
2021/11/02 17:16:26;;;;;;;26.48;16.23;;;;;;;8.13;100.00;99875.19;2613027;36;20416;-67
2021/11/02 17:18:59;;;;;;;25.30;16.50;;;;;;;8.19;100.00;99874.63;2612684;31;20173;-67
2021/11/02 17:21:29;;;;;;;28.85;17.08;;;;;;;8.19;100.00;99873.78;2610010;36;20461;-68
2021/11/02 17:24:11;;;;;;;25.77;16.83;;;;;;;8.20;100.00;99876.31;2611433;36;20041;-67
2021/11/02 17:26:43;;;;;;;28.35;17.20;;;;;;;8.17;100.00;99883.78;2611809;36;20039;-68
2021/11/02 17:29:20;;;;;;;29.10;17.65;;;;;;;8.18;100.00;99883.63;2611396;36;20037;-68
2021/11/02 17:32:16;;;;;;;32.13;18.63;;;;;;;8.17;100.00;99887.34;2610398;36;20165;-68
2021/11/02 17:41:07;;;;;;;31.98;18.73;;;;;;;8.22;100.00;99895.78;2608057;36;20030;-69
2021/11/02 17:44:05;;;;;;;35.22;19.83;;;;;;;8.22;100.00;99909.16;2627770;36;20170;-68
2021/11/02 17:46:44;;;;;;;37.38;21.15;;;;;;;8.20;100.00;99907.63;2609042;36;20141;-69
2021/11/02 17:49:13;;;;;;;31.70;18.98;;;;;;;8.23;100.00;99915.41;2609397;36;20034;-68
2021/11/02 17:55:24;;;;;;;37.40;20.15;;;;;;;8.14;100.00;99926.97;2608928;54;20042;-69
2021/11/02 18:13:21;;;;;;;33.47;19.90;;;;;;;7.93;100.00;99949.41;2607149;31;20038;-69
2021/11/02 18:18:49;;;;;;;33.85;19.58;;;;;;;7.89;100.00;99953.34;2626538;36;20441;-68
2021/11/02 18:21:25;;;;;;;34.00;19.67;;;;;;;7.85;100.00;99957.31;2609906;36;20057;-68
2021/11/02 18:23:53;;;;;;;35.80;19.55;;;;;;;7.85;100.00;99958.16;2610327;36;20042;-68
2021/11/02 18:26:25;;;;;;;34.42;18.85;;;;;;;7.85;100.00;99958.16;2609888;31;20557;-68
2021/11/02 18:29:30;;;;;;;33.92;18.73;;;;;;;7.86;100.00;99961.66;2610780;31;20530;-69
2021/11/02 18:34:46;;;;;;;30.95;17.15;;;;;;;7.82;100.00;99976.34;2627366;36;20510;-68
2021/11/02 18:37:27;;;;;;;27.60;16.58;;;;;;;7.77;100.00;99970.56;2610636;36;20069;-68
2021/11/02 18:39:57;;;;;;;30.17;15.40;;;;;;;7.66;100.00;99975.06;2609782;36;20057;-68
2021/11/02 18:42:29;;;;;;;28.83;14.75;;;;;;;7.71;100.00;99977.31;2610618;36;20073;-68
2021/11/02 18:44:57;;;;;;;28.05;14.93;;;;;;;7.67;100.00;99979.44;2610455;31;20081;-68
2021/11/02 18:47:30;;;;;;;27.08;14.20;;;;;;;7.59;100.00;99981.94;2609558;36;20054;-68
2021/11/02 18:49:59;;;;;;;24.55;13.45;;;;;;;7.59;100.00;99981.13;2610006;31;20530;-68
2021/11/02 18:52:28;;;;;;;21.38;12.13;;;;;;;7.57;100.00;99983.94;2609977;36;20638;-69
2021/11/02 18:55:03;;;;;;;23.67;13.38;;;;;;;7.58;100.00;99988.28;2610246;31;20038;-69
2021/11/02 18:57:32;;;;;;;23.65;12.18;;;;;;;7.62;100.00;99988.88;2610692;36;20031;-68
2021/11/02 19:00:03;;;;;;;23.08;12.40;;;;;;;7.63;100.00;99995.94;2610664;36;20192;-67
2021/11/02 19:02:35;;;;;;;21.98;11.65;;;;;;;7.58;100.00;99998.16;2610463;36;20042;-68
2021/11/02 19:07:59;;;;;;;21.60;11.90;;;;;;;7.60;100.00;100007.75;2611194;36;20038;-67
2021/11/02 19:10:29;;;;;;;17.98;10.15;;;;;;;7.64;100.00;100017.22;2608469;36;20164;-67
2021/11/02 19:13:00;;;;;;;16.98;9.90;;;;;;;7.68;100.00;100010.56;2609930;36;20057;-68
2021/11/02 19:15:32;;;;;;;20.73;14.50;;;;;;;7.72;100.00;100006.63;2607912;36;20034;-69
2021/11/02 19:18:04;;;;;;;19.98;12.73;;;;;;;7.72;100.00;100011.16;2628203;36;20058;-68
2021/11/02 19:20:32;;;;;;;19.45;10.25;;;;;;;7.70;100.00;100016.66;2611824;31;20549;-68
2021/11/02 19:23:02;;;;;;;13.27;8.98;;;;;;;7.67;100.00;100024.09;2628573;36;20083;-68
2021/11/02 19:25:33;;;;;;;13.52;8.48;;;;;;;7.63;100.00;100012.84;2628522;36;20641;-68
2021/11/02 19:28:11;;;;;;;15.70;9.63;;;;;;;7.68;100.00;100018.59;2610269;36;20065;-68
2021/11/02 19:30:40;;;;;;;14.07;8.88;;;;;;;7.69;100.00;100027.50;2628805;36;20031;-68
2021/11/02 19:33:12;;;;;;;14.13;8.50;;;;;;;7.66;100.00;100028.63;2628490;36;20039;-68
2021/11/02 19:38:34;;;;;;;9.98;6.80;;;;;;;7.52;100.00;100026.31;2609407;36;20297;-68
2021/11/02 19:41:19;;;;;;;12.48;7.47;;;;;;;7.53;100.00;100025.34;2610196;36;20474;-68
2021/11/02 19:43:52;;;;;;;12.10;7.68;;;;;;;7.53;100.00;100031.53;2607554;36;20069;-67
2021/11/02 20:21:07;;;;;;;9.23;5.80;;;;;;;7.03;100.00;100060.09;2612602;51;20030;-68
2021/11/02 20:27:10;;;;;;;8.48;6.15;;;;;;;7.05;100.00;100067.00;2631862;36;20465;-67
2021/11/02 20:29:39;;;;;;;8.02;6.15;;;;;;;7.01;100.00;100061.06;2613802;36;20038;-67
2021/11/02 20:32:09;;;;;;;8.25;6.03;;;;;;;7.00;100.00;100066.56;2614389;31;20066;-67
2021/11/02 20:34:44;;;;;;;12.45;6.28;;;;;;;7.05;100.00;100061.66;2614969;36;20145;-67
2021/11/02 20:37:18;;;;;;;9.25;6.55;;;;;;;6.99;100.00;100063.06;2612866;36;22095;-68
2021/11/02 20:39:51;;;;;;;14.18;7.80;;;;;;;7.01;100.00;100066.44;2612570;36;20034;-67
2021/11/02 20:42:34;;;;;;;15.20;8.27;;;;;;;7.00;100.00;100070.06;2614864;36;20057;-67
2021/11/02 20:45:06;;;;;;;11.70;7.88;;;;;;;7.06;100.00;100068.69;2614448;36;20038;-67
2021/11/02 20:50:21;;;;;;;14.50;8.68;;;;;;;7.03;100.00;100065.47;2613513;36;20038;-67
2021/11/02 20:52:50;;;;;;;14.45;8.20;;;;;;;6.99;100.00;100070.22;2613085;36;20074;-67
2021/11/02 20:55:19;;;;;;;11.68;8.50;;;;;;;6.94;100.00;100069.78;2615191;36;20172;-68
2021/11/02 20:57:49;;;;;;;15.02;9.07;;;;;;;6.87;100.00;100074.78;2615530;36;20157;-67
2021/11/02 21:00:38;;;;;;;15.27;9.07;;;;;;;6.91;100.00;100070.03;2613672;31;20068;-67
2021/11/02 21:03:07;;;;;;;20.65;10.32;;;;;;;6.91;100.00;100070.88;2615235;36;20148;-67
2021/11/02 21:05:40;;;;;;;18.80;9.97;;;;;;;6.86;100.00;100067.75;2615451;36;20057;-68
2021/11/02 21:08:14;;;;;;;20.92;10.73;;;;;;;6.84;100.00;100059.00;2615135;36;20326;-67
2021/11/02 21:13:41;;;;;;;18.20;11.45;;;;;;;6.80;100.00;100069.13;2613940;36;20042;-67
2021/11/02 21:22:10;;;;;;;18.88;12.52;;;;;;;6.73;100.00;100070.63;2614654;36;20045;-67
2021/11/02 21:24:39;;;;;;;17.90;11.38;;;;;;;6.71;100.00;100063.72;2614254;36;20145;-67
2021/11/02 21:27:13;;;;;;;19.70;12.90;;;;;;;6.66;100.00;100062.28;2613276;36;20034;-67
2021/11/02 21:30:06;;;;;;;18.27;12.10;;;;;;;6.71;100.00;100058.38;2611061;36;20642;-68
2021/11/02 21:32:38;;;;;;;16.20;11.85;;;;;;;6.58;100.00;100059.41;2612142;36;20053;-67
2021/11/02 21:35:11;;;;;;;17.55;10.90;;;;;;;6.53;100.00;100064.28;2611681;36;20034;-68
2021/11/02 21:37:52;;;;;;;17.23;11.05;;;;;;;6.47;100.00;100064.81;2612701;36;20539;-67
2021/11/02 21:40:25;;;;;;;18.85;14.05;;;;;;;6.48;100.00;100063.84;2611922;31;20122;-67
2021/11/02 21:49:05;;;;;;;18.52;11.68;;;;;;;6.42;100.00;100064.34;2630004;36;20027;-67
2021/11/02 21:51:41;;;;;;;14.30;10.63;;;;;;;6.38;100.00;100054.91;2612530;36;20037;-67
2021/11/02 21:54:12;;;;;;;18.83;12.82;;;;;;;6.36;100.00;100059.50;2610691;36;20035;-67
2021/11/02 21:56:54;;;;;;;20.13;13.27;;;;;;;6.37;100.00;100058.53;2612429;36;20471;-67
2021/11/02 22:00:08;;;;;;;31.95;16.75;;;;;;;6.31;100.00;100050.06;2612203;31;20579;-69
2021/11/02 22:02:36;;;;;;;19.15;12.07;;;;;;;6.17;100.00;100044.16;2612020;36;20041;-68
2021/11/02 22:14:06;;;;;;;21.70;12.50;;;;;;;5.88;100.00;100042.91;2610528;36;20030;-68
2021/11/02 22:20:00;;;;;;;18.15;12.73;;;;;;;5.72;100.00;100042.47;2608998;36;20491;-69
2021/11/02 22:22:56;;;;;;;21.63;12.80;;;;;;;5.68;100.00;100043.69;2608722;36;20031;-68
2021/11/02 22:28:27;;;;;;;;;;;;;;;;;;;;;
2021/11/02 22:34:05;;;;;;;17.80;13.48;;;;;;;5.39;100.00;100023.72;2609223;36;20054;-67
2021/11/02 22:42:08;;;;;;;20.50;13.98;;;;;;;5.26;100.00;100023.84;2604378;36;20070;-68
2021/11/02 22:48:00;;;;;;;21.70;15.00;;;;;;;5.14;100.00;100026.63;2604529;36;20046;-67
2021/11/02 22:53:14;;;;;;;23.05;14.95;;;;;;;5.03;100.00;100027.50;2604898;36;20038;-69
2021/11/02 22:55:46;;;;;;;25.33;16.02;;;;;;;4.99;100.00;100026.03;2606339;36;20041;-67
2021/11/02 22:58:26;;;;;;;24.35;15.65;;;;;;;5.00;100.00;100028.56;2606013;36;20042;-68
2021/11/02 23:06:49;;;;;;;20.00;14.00;;;;;;;4.95;100.00;100019.25;2606388;36;20455;-67
2021/11/02 23:09:17;;;;;;;20.45;14.05;;;;;;;4.86;100.00;100016.34;2610059;36;20129;-68
2021/11/02 23:11:48;;;;;;;19.55;13.95;;;;;;;4.81;100.00;100023.84;2611080;36;20030;-68
2021/11/02 23:14:16;;;;;;;18.60;14.80;;;;;;;4.83;100.00;100021.06;2612327;36;20545;-67
2021/11/02 23:17:02;;;;;;;19.80;13.90;;;;;;;4.78;100.00;100026.75;2611224;36;20034;-67
2021/11/02 23:19:58;;;;;;;18.83;13.32;;;;;;;4.73;100.00;100020.94;2610856;36;20031;-67
2021/11/02 23:23:00;;;;;;;15.65;11.75;;;;;;;4.69;100.00;100017.66;2611186;36;20661;-67
2021/11/02 23:26:24;;;;;;;15.05;11.40;;;;;;;4.62;100.00;100031.56;2611135;36;20133;-68
2021/11/02 23:31:41;;;;;;;15.80;12.02;;;;;;;4.53;100.00;100034.00;2610973;36;20056;-68
2021/11/02 23:34:13;;;;;;;16.23;12.38;;;;;;;4.43;100.00;100042.78;2610156;36;20037;-68
2021/11/02 23:36:50;;;;;;;20.50;11.77;;;;;;;4.40;100.00;100041.19;2611534;36;20035;-68
2021/11/02 23:39:52;;;;;;;16.55;11.95;;;;;;;4.31;100.00;100037.41;2611439;36;20158;-68
2021/11/02 23:42:21;;;;;;;14.40;11.55;;;;;;;4.26;100.00;100044.09;2610486;36;20030;-68
2021/11/02 23:44:49;;;;;;;15.27;11.68;;;;;;;4.25;100.00;100053.03;2611611;36;20053;-68
2021/11/02 23:54:04;;;;;;;14.57;10.63;;;;;;;4.13;100.00;100044.97;2610328;36;20617;-68
2021/11/02 23:56:37;;;;;;;18.10;11.00;;;;;;;4.12;100.00;100051.28;2611210;36;20157;-67
2021/11/02 23:59:30;;;;;;;19.15;12.00;;;;;;;3.99;100.00;100050.47;2611092;31;20139;-67
